sensor_id;sensor_type;location;lat;lon;timestamp;temperature;humidity
18126;DHT22;53956;52.442;13.284;2022-12-31T00:00:37;11.00;99.90
18126;DHT22;53956;52.442;13.284;2022-12-31T00:03:05;11.00;99.90
18126;DHT22;53956;52.442;13.284;2022-12-31T00:05:34;11.10;99.90
18126;DHT22;53956;52.442;13.284;2022-12-31T00:08:01;11.00;99.90
18126;DHT22;53956;52.442;13.284;2022-12-31T00:10:28;11.10;99.90
18126;DHT22;53956;52.442;13.284;2022-12-31T00:12:55;11.10;99.90
18126;DHT22;53956;52.442;13.284;2022-12-31T00:15:21;11.10;99.90
18126;DHT22;53956;52.442;13.284;2022-12-31T00:17:48;11.10;99.90
18126;DHT22;53956;52.442;13.284;2022-12-31T00:20:16;11.10;99.90
18126;DHT22;53956;52.442;13.284;2022-12-31T00:22:43;11.10;99.90
18126;DHT22;53956;52.442;13.284;2022-12-31T00:25:10;11.10;99.90
18126;DHT22;53956;52.442;13.284;2022-12-31T00:27:36;11.10;99.90
18126;DHT22;53956;52.442;13.284;2022-12-31T00:30:04;11.20;99.90
18126;DHT22;53956;52.442;13.284;2022-12-31T00:32:30;11.30;99.90
18126;DHT22;53956;52.442;13.284;2022-12-31T00:34:57;11.30;99.90
18126;DHT22;53956;52.442;13.284;2022-12-31T00:37:25;11.30;99.90
18126;DHT22;53956;52.442;13.284;2022-12-31T00:39:51;11.20;99.90
18126;DHT22;53956;52.442;13.284;2022-12-31T00:42:18;11.30;99.90
18126;DHT22;53956;52.442;13.284;2022-12-31T00:44:45;11.40;99.90
18126;DHT22;53956;52.442;13.284;2022-12-31T00:47:12;11.20;99.90
18126;DHT22;53956;52.442;13.284;2022-12-31T00:49:38;11.40;99.90
18126;DHT22;53956;52.442;13.284;2022-12-31T00:52:05;11.30;99.90
18126;DHT22;53956;52.442;13.284;2022-12-31T00:54:33;11.30;99.90
18126;DHT22;53956;52.442;13.284;2022-12-31T00:57:00;11.30;99.90
18126;DHT22;53956;52.442;13.284;2022-12-31T00:59:26;11.30;99.90
18126;DHT22;53956;52.442;13.284;2022-12-31T01:01:53;11.30;99.90
18126;DHT22;53956;52.442;13.284;2022-12-31T01:04:20;11.30;99.90
18126;DHT22;53956;52.442;13.284;2022-12-31T01:06:47;11.40;99.90
18126;DHT22;53956;52.442;13.284;2022-12-31T01:09:15;11.30;99.90
18126;DHT22;53956;52.442;13.284;2022-12-31T01:11:44;11.40;99.90
18126;DHT22;53956;52.442;13.284;2022-12-31T01:14:13;11.40;99.90
18126;DHT22;53956;52.442;13.284;2022-12-31T01:16:42;11.50;99.90
18126;DHT22;53956;52.442;13.284;2022-12-31T01:19:11;11.60;99.90
18126;DHT22;53956;52.442;13.284;2022-12-31T01:21:39;11.70;99.90
18126;DHT22;53956;52.442;13.284;2022-12-31T01:24:07;11.60;99.90
18126;DHT22;53956;52.442;13.284;2022-12-31T01:26:34;11.60;99.90
18126;DHT22;53956;52.442;13.284;2022-12-31T01:29:02;11.70;99.90
18126;DHT22;53956;52.442;13.284;2022-12-31T01:31:29;11.70;99.90
18126;DHT22;53956;52.442;13.284;2022-12-31T01:33:56;11.80;99.90
18126;DHT22;53956;52.442;13.284;2022-12-31T01:36:25;11.80;99.90
18126;DHT22;53956;52.442;13.284;2022-12-31T01:38:52;11.80;99.90
18126;DHT22;53956;52.442;13.284;2022-12-31T01:41:20;11.80;99.90
18126;DHT22;53956;52.442;13.284;2022-12-31T01:43:49;11.90;99.90
18126;DHT22;53956;52.442;13.284;2022-12-31T01:46:25;11.90;99.90
18126;DHT22;53956;52.442;13.284;2022-12-31T01:48:55;11.90;99.90
18126;DHT22;53956;52.442;13.284;2022-12-31T01:51:24;11.90;99.90
18126;DHT22;53956;52.442;13.284;2022-12-31T01:53:52;12.00;99.90
18126;DHT22;53956;52.442;13.284;2022-12-31T01:56:21;12.10;99.90
18126;DHT22;53956;52.442;13.284;2022-12-31T01:58:50;12.10;99.90
18126;DHT22;53956;52.442;13.284;2022-12-31T02:01:23;12.10;99.90
18126;DHT22;53956;52.442;13.284;2022-12-31T02:03:50;12.10;99.90
18126;DHT22;53956;52.442;13.284;2022-12-31T02:06:20;12.10;99.90
18126;DHT22;53956;52.442;13.284;2022-12-31T02:08:47;12.20;99.90
18126;DHT22;53956;52.442;13.284;2022-12-31T02:11:24;12.20;99.90
18126;DHT22;53956;52.442;13.284;2022-12-31T02:13:52;12.20;99.90
18126;DHT22;53956;52.442;13.284;2022-12-31T02:16:28;12.30;99.90
18126;DHT22;53956;52.442;13.284;2022-12-31T02:19:00;12.40;99.90
18126;DHT22;53956;52.442;13.284;2022-12-31T02:21:47;12.30;99.90
18126;DHT22;53956;52.442;13.284;2022-12-31T02:24:41;12.40;99.90
18126;DHT22;53956;52.442;13.284;2022-12-31T02:27:13;12.40;99.90
18126;DHT22;53956;52.442;13.284;2022-12-31T02:30:05;12.30;99.90
18126;DHT22;53956;52.442;13.284;2022-12-31T02:32:53;12.30;99.90
18126;DHT22;53956;52.442;13.284;2022-12-31T02:35:27;12.40;99.90
18126;DHT22;53956;52.442;13.284;2022-12-31T02:37:59;12.30;99.90
18126;DHT22;53956;52.442;13.284;2022-12-31T02:40:28;12.50;99.90
18126;DHT22;53956;52.442;13.284;2022-12-31T02:42:54;12.30;99.90
18126;DHT22;53956;52.442;13.284;2022-12-31T02:45:27;12.40;99.90
18126;DHT22;53956;52.442;13.284;2022-12-31T02:51:45;12.40;99.90
18126;DHT22;53956;52.442;13.284;2022-12-31T02:54:20;12.30;99.90
18126;DHT22;53956;52.442;13.284;2022-12-31T02:56:54;12.40;99.90
18126;DHT22;53956;52.442;13.284;2022-12-31T02:59:27;12.40;99.90
18126;DHT22;53956;52.442;13.284;2022-12-31T03:02:15;12.40;99.90
18126;DHT22;53956;52.442;13.284;2022-12-31T03:04:46;12.40;99.90
18126;DHT22;53956;52.442;13.284;2022-12-31T03:07:19;12.50;99.90
18126;DHT22;53956;52.442;13.284;2022-12-31T03:09:46;12.50;99.90
18126;DHT22;53956;52.442;13.284;2022-12-31T03:12:14;12.60;99.90
18126;DHT22;53956;52.442;13.284;2022-12-31T03:14:58;12.60;99.90
18126;DHT22;53956;52.442;13.284;2022-12-31T03:17:26;12.50;99.90
18126;DHT22;53956;52.442;13.284;2022-12-31T03:19:52;12.50;99.90
18126;DHT22;53956;52.442;13.284;2022-12-31T03:22:40;12.60;99.90
18126;DHT22;53956;52.442;13.284;2022-12-31T03:25:09;12.50;99.90
18126;DHT22;53956;52.442;13.284;2022-12-31T03:27:55;12.50;99.90
18126;DHT22;53956;52.442;13.284;2022-12-31T03:30:23;12.40;99.90
18126;DHT22;53956;52.442;13.284;2022-12-31T03:32:52;12.50;99.90
18126;DHT22;53956;52.442;13.284;2022-12-31T03:35:21;12.50;99.90
18126;DHT22;53956;52.442;13.284;2022-12-31T03:37:48;12.40;99.90
18126;DHT22;53956;52.442;13.284;2022-12-31T03:40:17;12.40;99.90
18126;DHT22;53956;52.442;13.284;2022-12-31T03:42:44;12.50;99.90
18126;DHT22;53956;52.442;13.284;2022-12-31T03:45:12;12.50;99.90
18126;DHT22;53956;52.442;13.284;2022-12-31T03:47:39;12.40;99.90
18126;DHT22;53956;52.442;13.284;2022-12-31T03:50:09;12.50;99.90
18126;DHT22;53956;52.442;13.284;2022-12-31T03:52:36;12.50;99.90
18126;DHT22;53956;52.442;13.284;2022-12-31T03:55:03;12.50;99.90
18126;DHT22;53956;52.442;13.284;2022-12-31T03:57:30;12.50;99.90
18126;DHT22;53956;52.442;13.284;2022-12-31T03:59:57;12.50;99.90
18126;DHT22;53956;52.442;13.284;2022-12-31T04:02:24;12.50;99.90
18126;DHT22;53956;52.442;13.284;2022-12-31T04:04:50;12.50;99.90
18126;DHT22;53956;52.442;13.284;2022-12-31T04:07:18;12.40;99.90
18126;DHT22;53956;52.442;13.284;2022-12-31T04:09:45;12.60;99.90
18126;DHT22;53956;52.442;13.284;2022-12-31T04:12:12;12.70;99.90
18126;DHT22;53956;52.442;13.284;2022-12-31T04:14:38;12.60;99.90
18126;DHT22;53956;52.442;13.284;2022-12-31T04:17:05;12.70;99.90
18126;DHT22;53956;52.442;13.284;2022-12-31T04:19:32;12.70;99.90
18126;DHT22;53956;52.442;13.284;2022-12-31T04:21:59;12.70;99.90
18126;DHT22;53956;52.442;13.284;2022-12-31T04:24:27;12.70;99.90
18126;DHT22;53956;52.442;13.284;2022-12-31T04:26:53;12.70;99.90
18126;DHT22;53956;52.442;13.284;2022-12-31T04:29:20;12.60;99.90
18126;DHT22;53956;52.442;13.284;2022-12-31T04:31:47;12.70;99.90
18126;DHT22;53956;52.442;13.284;2022-12-31T04:34:13;12.70;99.90
18126;DHT22;53956;52.442;13.284;2022-12-31T04:36:40;12.70;99.90
18126;DHT22;53956;52.442;13.284;2022-12-31T04:39:07;12.70;99.90
18126;DHT22;53956;52.442;13.284;2022-12-31T04:41:35;12.80;99.90
18126;DHT22;53956;52.442;13.284;2022-12-31T04:44:01;12.70;99.90
18126;DHT22;53956;52.442;13.284;2022-12-31T04:46:29;12.80;99.90
18126;DHT22;53956;52.442;13.284;2022-12-31T04:48:56;12.80;99.90
18126;DHT22;53956;52.442;13.284;2022-12-31T04:51:24;12.80;99.90
18126;DHT22;53956;52.442;13.284;2022-12-31T04:53:51;12.90;99.90
18126;DHT22;53956;52.442;13.284;2022-12-31T04:56:17;12.80;99.90
18126;DHT22;53956;52.442;13.284;2022-12-31T04:58:45;12.90;99.90
18126;DHT22;53956;52.442;13.284;2022-12-31T05:01:13;12.90;99.90
18126;DHT22;53956;52.442;13.284;2022-12-31T05:03:40;12.80;99.90
18126;DHT22;53956;52.442;13.284;2022-12-31T05:06:09;12.90;99.90
18126;DHT22;53956;52.442;13.284;2022-12-31T05:08:36;12.90;99.90
18126;DHT22;53956;52.442;13.284;2022-12-31T05:11:03;12.90;99.90
18126;DHT22;53956;52.442;13.284;2022-12-31T05:13:30;13.00;99.90
18126;DHT22;53956;52.442;13.284;2022-12-31T05:15:58;13.00;99.90
18126;DHT22;53956;52.442;13.284;2022-12-31T05:18:25;12.90;99.90
18126;DHT22;53956;52.442;13.284;2022-12-31T05:20:52;13.00;99.90
18126;DHT22;53956;52.442;13.284;2022-12-31T05:23:18;13.00;99.90
18126;DHT22;53956;52.442;13.284;2022-12-31T05:25:46;13.00;99.90
18126;DHT22;53956;52.442;13.284;2022-12-31T05:28:13;13.10;99.90
18126;DHT22;53956;52.442;13.284;2022-12-31T05:30:40;13.00;99.90
18126;DHT22;53956;52.442;13.284;2022-12-31T05:33:09;13.00;99.90
18126;DHT22;53956;52.442;13.284;2022-12-31T05:35:35;12.90;99.90
18126;DHT22;53956;52.442;13.284;2022-12-31T05:38:02;12.90;99.90
18126;DHT22;53956;52.442;13.284;2022-12-31T05:40:29;12.90;99.90
18126;DHT22;53956;52.442;13.284;2022-12-31T05:42:56;12.90;99.90
18126;DHT22;53956;52.442;13.284;2022-12-31T05:45:23;12.90;99.90
18126;DHT22;53956;52.442;13.284;2022-12-31T05:47:50;12.90;99.90
18126;DHT22;53956;52.442;13.284;2022-12-31T05:50:18;12.90;99.90
18126;DHT22;53956;52.442;13.284;2022-12-31T05:52:50;13.00;99.90
18126;DHT22;53956;52.442;13.284;2022-12-31T05:55:17;12.90;99.90
18126;DHT22;53956;52.442;13.284;2022-12-31T05:57:43;13.00;99.90
18126;DHT22;53956;52.442;13.284;2022-12-31T06:00:11;12.90;99.90
18126;DHT22;53956;52.442;13.284;2022-12-31T06:02:41;13.00;99.90
18126;DHT22;53956;52.442;13.284;2022-12-31T06:05:08;13.00;99.90
18126;DHT22;53956;52.442;13.284;2022-12-31T06:07:36;13.10;99.90
18126;DHT22;53956;52.442;13.284;2022-12-31T06:10:04;13.10;99.90
18126;DHT22;53956;52.442;13.284;2022-12-31T06:12:31;13.10;99.90
18126;DHT22;53956;52.442;13.284;2022-12-31T06:14:57;13.10;99.90
18126;DHT22;53956;52.442;13.284;2022-12-31T06:17:24;13.10;99.90
18126;DHT22;53956;52.442;13.284;2022-12-31T06:19:51;13.20;99.90
18126;DHT22;53956;52.442;13.284;2022-12-31T06:22:17;13.20;99.90
18126;DHT22;53956;52.442;13.284;2022-12-31T06:24:47;13.10;99.90
18126;DHT22;53956;52.442;13.284;2022-12-31T06:27:13;13.20;99.90
18126;DHT22;53956;52.442;13.284;2022-12-31T06:29:40;13.20;99.90
18126;DHT22;53956;52.442;13.284;2022-12-31T06:32:06;13.30;99.90
18126;DHT22;53956;52.442;13.284;2022-12-31T06:34:33;13.30;99.90
18126;DHT22;53956;52.442;13.284;2022-12-31T06:37:00;13.30;99.90
18126;DHT22;53956;52.442;13.284;2022-12-31T06:39:26;13.30;99.90
18126;DHT22;53956;52.442;13.284;2022-12-31T06:41:54;13.30;99.90
18126;DHT22;53956;52.442;13.284;2022-12-31T06:44:21;13.40;99.90
18126;DHT22;53956;52.442;13.284;2022-12-31T06:46:48;13.40;99.90
18126;DHT22;53956;52.442;13.284;2022-12-31T06:49:15;13.40;99.90
18126;DHT22;53956;52.442;13.284;2022-12-31T06:51:42;13.40;99.90
18126;DHT22;53956;52.442;13.284;2022-12-31T06:54:11;13.50;99.90
18126;DHT22;53956;52.442;13.284;2022-12-31T06:56:39;13.50;99.90
18126;DHT22;53956;52.442;13.284;2022-12-31T06:59:21;13.60;99.90
18126;DHT22;53956;52.442;13.284;2022-12-31T07:01:56;13.70;99.90
18126;DHT22;53956;52.442;13.284;2022-12-31T07:07:32;13.90;99.90
18126;DHT22;53956;52.442;13.284;2022-12-31T07:10:06;14.10;99.90
18126;DHT22;53956;52.442;13.284;2022-12-31T07:12:42;14.20;99.90
18126;DHT22;53956;52.442;13.284;2022-12-31T07:15:15;14.10;99.90
18126;DHT22;53956;52.442;13.284;2022-12-31T07:17:51;14.00;99.90
18126;DHT22;53956;52.442;13.284;2022-12-31T07:20:21;13.90;99.90
18126;DHT22;53956;52.442;13.284;2022-12-31T07:22:49;14.00;99.90
18126;DHT22;53956;52.442;13.284;2022-12-31T07:25:17;14.00;99.90
18126;DHT22;53956;52.442;13.284;2022-12-31T07:27:52;14.00;99.90
18126;DHT22;53956;52.442;13.284;2022-12-31T07:30:28;14.00;99.90
18126;DHT22;53956;52.442;13.284;2022-12-31T07:33:09;14.00;99.90
18126;DHT22;53956;52.442;13.284;2022-12-31T07:35:43;14.10;99.90
18126;DHT22;53956;52.442;13.284;2022-12-31T07:38:17;14.10;99.90
18126;DHT22;53956;52.442;13.284;2022-12-31T07:40:53;14.20;99.90
18126;DHT22;53956;52.442;13.284;2022-12-31T07:43:26;14.10;99.90
18126;DHT22;53956;52.442;13.284;2022-12-31T07:46:03;14.20;99.90
18126;DHT22;53956;52.442;13.284;2022-12-31T07:48:32;14.20;99.90
18126;DHT22;53956;52.442;13.284;2022-12-31T07:50:59;14.30;99.90
18126;DHT22;53956;52.442;13.284;2022-12-31T07:53:27;14.20;99.90
18126;DHT22;53956;52.442;13.284;2022-12-31T07:55:58;14.30;99.90
18126;DHT22;53956;52.442;13.284;2022-12-31T07:58:31;14.20;99.90
18126;DHT22;53956;52.442;13.284;2022-12-31T08:01:10;14.30;99.90
18126;DHT22;53956;52.442;13.284;2022-12-31T08:03:46;14.40;99.90
18126;DHT22;53956;52.442;13.284;2022-12-31T08:06:23;14.40;99.90
18126;DHT22;53956;52.442;13.284;2022-12-31T08:09:02;14.40;99.90
18126;DHT22;53956;52.442;13.284;2022-12-31T08:11:35;14.50;99.90
18126;DHT22;53956;52.442;13.284;2022-12-31T08:14:02;14.50;99.90
18126;DHT22;53956;52.442;13.284;2022-12-31T08:16:31;14.50;99.90
18126;DHT22;53956;52.442;13.284;2022-12-31T08:18:58;14.50;99.90
18126;DHT22;53956;52.442;13.284;2022-12-31T08:21:34;14.60;99.90
18126;DHT22;53956;52.442;13.284;2022-12-31T08:24:09;14.60;99.90
18126;DHT22;53956;52.442;13.284;2022-12-31T08:26:45;14.70;99.90
18126;DHT22;53956;52.442;13.284;2022-12-31T08:29:25;14.70;99.90
18126;DHT22;53956;52.442;13.284;2022-12-31T08:32:01;14.70;99.90
18126;DHT22;53956;52.442;13.284;2022-12-31T08:34:34;14.80;99.90
18126;DHT22;53956;52.442;13.284;2022-12-31T08:37:09;14.80;99.90
18126;DHT22;53956;52.442;13.284;2022-12-31T08:39:47;14.70;99.90
18126;DHT22;53956;52.442;13.284;2022-12-31T08:42:21;14.80;99.90
18126;DHT22;53956;52.442;13.284;2022-12-31T08:44:54;14.80;99.90
18126;DHT22;53956;52.442;13.284;2022-12-31T08:47:32;14.80;99.90
18126;DHT22;53956;52.442;13.284;2022-12-31T08:50:00;14.90;99.90
18126;DHT22;53956;52.442;13.284;2022-12-31T08:52:27;14.90;99.90
18126;DHT22;53956;52.442;13.284;2022-12-31T08:54:55;14.90;99.90
18126;DHT22;53956;52.442;13.284;2022-12-31T08:57:27;15.00;99.90
18126;DHT22;53956;52.442;13.284;2022-12-31T09:00:06;15.00;99.90
18126;DHT22;53956;52.442;13.284;2022-12-31T09:02:56;15.00;99.90
18126;DHT22;53956;52.442;13.284;2022-12-31T09:05:30;15.10;99.90
18126;DHT22;53956;52.442;13.284;2022-12-31T09:08:08;15.10;99.90
18126;DHT22;53956;52.442;13.284;2022-12-31T09:10:42;15.10;99.90
18126;DHT22;53956;52.442;13.284;2022-12-31T09:13:14;15.10;99.90
18126;DHT22;53956;52.442;13.284;2022-12-31T09:15:50;15.10;99.90
18126;DHT22;53956;52.442;13.284;2022-12-31T09:18:23;15.10;99.90
18126;DHT22;53956;52.442;13.284;2022-12-31T09:20:50;15.20;99.90
18126;DHT22;53956;52.442;13.284;2022-12-31T09:23:17;15.20;99.90
18126;DHT22;53956;52.442;13.284;2022-12-31T09:25:49;15.20;99.90
18126;DHT22;53956;52.442;13.284;2022-12-31T09:28:33;15.30;99.90
18126;DHT22;53956;52.442;13.284;2022-12-31T09:31:10;15.40;99.90
18126;DHT22;53956;52.442;13.284;2022-12-31T09:33:44;15.50;99.90
18126;DHT22;53956;52.442;13.284;2022-12-31T09:36:15;15.60;99.90
18126;DHT22;53956;52.442;13.284;2022-12-31T09:38:50;15.70;99.90
18126;DHT22;53956;52.442;13.284;2022-12-31T09:41:36;15.70;99.90
18126;DHT22;53956;52.442;13.284;2022-12-31T09:47:30;15.80;99.90
18126;DHT22;53956;52.442;13.284;2022-12-31T09:50:17;16.10;99.90
18126;DHT22;53956;52.442;13.284;2022-12-31T09:53:25;16.00;99.90
18126;DHT22;53956;52.442;13.284;2022-12-31T09:55:56;16.20;99.90
18126;DHT22;53956;52.442;13.284;2022-12-31T09:58:37;16.10;99.90
18126;DHT22;53956;52.442;13.284;2022-12-31T10:01:17;16.20;99.90
18126;DHT22;53956;52.442;13.284;2022-12-31T10:04:05;16.30;99.90
18126;DHT22;53956;52.442;13.284;2022-12-31T10:06:44;16.40;99.90
18126;DHT22;53956;52.442;13.284;2022-12-31T10:09:24;16.40;99.90
18126;DHT22;53956;52.442;13.284;2022-12-31T10:12:05;16.40;99.90
18126;DHT22;53956;52.442;13.284;2022-12-31T10:14:50;16.40;99.90
18126;DHT22;53956;52.442;13.284;2022-12-31T10:17:35;16.50;99.90
18126;DHT22;53956;52.442;13.284;2022-12-31T10:20:26;16.50;99.90
18126;DHT22;53956;52.442;13.284;2022-12-31T10:23:13;16.50;99.90
18126;DHT22;53956;52.442;13.284;2022-12-31T10:25:57;16.50;99.90
18126;DHT22;53956;52.442;13.284;2022-12-31T10:28:30;16.50;99.90
18126;DHT22;53956;52.442;13.284;2022-12-31T10:31:08;16.50;99.90
18126;DHT22;53956;52.442;13.284;2022-12-31T10:33:43;16.50;99.90
18126;DHT22;53956;52.442;13.284;2022-12-31T10:36:18;16.50;99.90
18126;DHT22;53956;52.442;13.284;2022-12-31T10:38:59;16.50;99.90
18126;DHT22;53956;52.442;13.284;2022-12-31T10:41:53;16.50;99.90
18126;DHT22;53956;52.442;13.284;2022-12-31T10:44:37;16.60;99.90
18126;DHT22;53956;52.442;13.284;2022-12-31T10:50:29;16.60;99.90
18126;DHT22;53956;52.442;13.284;2022-12-31T10:53:34;16.50;99.90
18126;DHT22;53956;52.442;13.284;2022-12-31T10:56:29;16.50;99.90
18126;DHT22;53956;52.442;13.284;2022-12-31T11:02:52;16.50;99.90
18126;DHT22;53956;52.442;13.284;2022-12-31T11:09:12;16.50;99.90
18126;DHT22;53956;52.442;13.284;2022-12-31T11:11:52;16.50;99.90
18126;DHT22;53956;52.442;13.284;2022-12-31T11:14:40;16.50;99.90
18126;DHT22;53956;52.442;13.284;2022-12-31T11:17:18;16.50;99.90
18126;DHT22;53956;52.442;13.284;2022-12-31T11:19:56;16.60;99.90
18126;DHT22;53956;52.442;13.284;2022-12-31T11:22:39;16.50;99.90
18126;DHT22;53956;52.442;13.284;2022-12-31T11:25:26;16.40;99.90
18126;DHT22;53956;52.442;13.284;2022-12-31T11:28:07;16.40;99.90
18126;DHT22;53956;52.442;13.284;2022-12-31T11:30:42;16.50;99.90
18126;DHT22;53956;52.442;13.284;2022-12-31T11:33:26;16.40;99.90
18126;DHT22;53956;52.442;13.284;2022-12-31T11:36:07;16.50;99.90
18126;DHT22;53956;52.442;13.284;2022-12-31T11:38:38;16.50;99.90
18126;DHT22;53956;52.442;13.284;2022-12-31T11:41:12;16.50;99.90
18126;DHT22;53956;52.442;13.284;2022-12-31T11:43:48;16.60;99.90
18126;DHT22;53956;52.442;13.284;2022-12-31T11:46:29;16.60;99.90
18126;DHT22;53956;52.442;13.284;2022-12-31T11:49:16;16.60;99.90
18126;DHT22;53956;52.442;13.284;2022-12-31T11:52:00;16.80;99.90
18126;DHT22;53956;52.442;13.284;2022-12-31T11:54:46;16.80;99.90
18126;DHT22;53956;52.442;13.284;2022-12-31T11:57:21;16.80;99.90
18126;DHT22;53956;52.442;13.284;2022-12-31T11:59:55;16.80;99.90
18126;DHT22;53956;52.442;13.284;2022-12-31T12:02:24;16.90;99.90
18126;DHT22;53956;52.442;13.284;2022-12-31T12:04:52;16.80;99.90
18126;DHT22;53956;52.442;13.284;2022-12-31T12:07:20;16.80;99.90
18126;DHT22;53956;52.442;13.284;2022-12-31T12:09:49;17.00;99.90
18126;DHT22;53956;52.442;13.284;2022-12-31T12:12:16;17.10;99.90
18126;DHT22;53956;52.442;13.284;2022-12-31T12:14:44;17.10;99.90
18126;DHT22;53956;52.442;13.284;2022-12-31T12:17:27;17.10;99.90
18126;DHT22;53956;52.442;13.284;2022-12-31T12:19:59;17.10;99.90
18126;DHT22;53956;52.442;13.284;2022-12-31T12:22:28;17.10;99.90
18126;DHT22;53956;52.442;13.284;2022-12-31T12:24:57;17.10;99.90
18126;DHT22;53956;52.442;13.284;2022-12-31T12:27:29;17.10;99.90
18126;DHT22;53956;52.442;13.284;2022-12-31T12:29:56;17.10;99.90
18126;DHT22;53956;52.442;13.284;2022-12-31T12:32:25;17.20;99.90
18126;DHT22;53956;52.442;13.284;2022-12-31T12:34:52;17.10;99.90
18126;DHT22;53956;52.442;13.284;2022-12-31T12:37:28;17.20;99.90
18126;DHT22;53956;52.442;13.284;2022-12-31T12:39:58;17.10;99.90
18126;DHT22;53956;52.442;13.284;2022-12-31T12:42:26;17.10;99.90
18126;DHT22;53956;52.442;13.284;2022-12-31T12:45:01;17.10;99.90
18126;DHT22;53956;52.442;13.284;2022-12-31T12:47:30;17.00;99.90
18126;DHT22;53956;52.442;13.284;2022-12-31T12:49:57;17.10;99.90
18126;DHT22;53956;52.442;13.284;2022-12-31T12:52:39;17.10;99.90
18126;DHT22;53956;52.442;13.284;2022-12-31T12:55:17;17.20;99.90
18126;DHT22;53956;52.442;13.284;2022-12-31T12:57:49;17.20;99.90
18126;DHT22;53956;52.442;13.284;2022-12-31T13:00:19;17.20;99.90
18126;DHT22;53956;52.442;13.284;2022-12-31T13:03:07;17.20;99.90
18126;DHT22;53956;52.442;13.284;2022-12-31T13:05:58;17.20;99.90
18126;DHT22;53956;52.442;13.284;2022-12-31T13:08:38;17.30;99.90
18126;DHT22;53956;52.442;13.284;2022-12-31T13:11:18;17.40;99.90
18126;DHT22;53956;52.442;13.284;2022-12-31T13:13:56;17.30;99.90
18126;DHT22;53956;52.442;13.284;2022-12-31T13:16:32;17.40;99.90
18126;DHT22;53956;52.442;13.284;2022-12-31T13:19:06;17.50;99.90
18126;DHT22;53956;52.442;13.284;2022-12-31T13:21:45;17.40;99.90
18126;DHT22;53956;52.442;13.284;2022-12-31T13:24:24;17.40;99.90
18126;DHT22;53956;52.442;13.284;2022-12-31T13:26:57;17.40;99.90
18126;DHT22;53956;52.442;13.284;2022-12-31T13:29:29;17.30;99.90
18126;DHT22;53956;52.442;13.284;2022-12-31T13:32:00;17.40;99.90
18126;DHT22;53956;52.442;13.284;2022-12-31T13:34:34;17.40;99.90
18126;DHT22;53956;52.442;13.284;2022-12-31T13:37:05;17.30;99.90
18126;DHT22;53956;52.442;13.284;2022-12-31T13:39:37;17.40;99.90
18126;DHT22;53956;52.442;13.284;2022-12-31T13:42:08;17.30;99.90
18126;DHT22;53956;52.442;13.284;2022-12-31T13:44:40;17.40;99.90
18126;DHT22;53956;52.442;13.284;2022-12-31T13:47:13;17.40;99.90
18126;DHT22;53956;52.442;13.284;2022-12-31T13:49:45;17.40;99.90
18126;DHT22;53956;52.442;13.284;2022-12-31T13:52:21;17.40;99.90
18126;DHT22;53956;52.442;13.284;2022-12-31T13:54:55;17.30;99.90
18126;DHT22;53956;52.442;13.284;2022-12-31T13:57:33;17.40;99.90
18126;DHT22;53956;52.442;13.284;2022-12-31T14:00:04;17.30;99.90
18126;DHT22;53956;52.442;13.284;2022-12-31T14:02:41;17.30;99.90
18126;DHT22;53956;52.442;13.284;2022-12-31T14:05:15;17.40;99.90
18126;DHT22;53956;52.442;13.284;2022-12-31T14:07:48;17.40;99.90
18126;DHT22;53956;52.442;13.284;2022-12-31T14:10:19;17.30;99.90
18126;DHT22;53956;52.442;13.284;2022-12-31T14:12:52;17.50;99.90
18126;DHT22;53956;52.442;13.284;2022-12-31T14:15:24;17.40;99.90
18126;DHT22;53956;52.442;13.284;2022-12-31T14:18:00;17.50;99.90
18126;DHT22;53956;52.442;13.284;2022-12-31T14:20:36;17.50;99.90
18126;DHT22;53956;52.442;13.284;2022-12-31T14:23:12;17.50;99.90
18126;DHT22;53956;52.442;13.284;2022-12-31T14:25:45;17.50;99.90
18126;DHT22;53956;52.442;13.284;2022-12-31T14:28:16;17.50;99.90
18126;DHT22;53956;52.442;13.284;2022-12-31T14:30:48;17.50;99.90
18126;DHT22;53956;52.442;13.284;2022-12-31T14:33:33;17.40;99.90
18126;DHT22;53956;52.442;13.284;2022-12-31T14:36:13;17.50;99.90
18126;DHT22;53956;52.442;13.284;2022-12-31T14:38:53;17.50;99.90
18126;DHT22;53956;52.442;13.284;2022-12-31T14:41:35;17.50;99.90
18126;DHT22;53956;52.442;13.284;2022-12-31T14:44:20;17.50;99.90
18126;DHT22;53956;52.442;13.284;2022-12-31T14:46:59;17.40;99.90
18126;DHT22;53956;52.442;13.284;2022-12-31T14:49:38;17.50;99.90
18126;DHT22;53956;52.442;13.284;2022-12-31T14:52:19;17.50;99.90
18126;DHT22;53956;52.442;13.284;2022-12-31T14:54:57;17.40;99.90
18126;DHT22;53956;52.442;13.284;2022-12-31T14:57:25;17.30;99.90
18126;DHT22;53956;52.442;13.284;2022-12-31T14:59:55;17.40;99.90
18126;DHT22;53956;52.442;13.284;2022-12-31T15:02:25;17.40;99.90
18126;DHT22;53956;52.442;13.284;2022-12-31T15:05:03;17.30;99.90
18126;DHT22;53956;52.442;13.284;2022-12-31T15:07:37;17.30;99.90
18126;DHT22;53956;52.442;13.284;2022-12-31T15:10:13;17.30;99.90
18126;DHT22;53956;52.442;13.284;2022-12-31T15:13:01;17.30;99.90
18126;DHT22;53956;52.442;13.284;2022-12-31T15:15:51;17.30;99.90
18126;DHT22;53956;52.442;13.284;2022-12-31T15:18:35;17.20;99.90
18126;DHT22;53956;52.442;13.284;2022-12-31T15:21:25;17.20;99.90
18126;DHT22;53956;52.442;13.284;2022-12-31T15:23:56;17.20;99.90
18126;DHT22;53956;52.442;13.284;2022-12-31T15:26:24;17.20;99.90
18126;DHT22;53956;52.442;13.284;2022-12-31T15:28:57;17.20;99.90
18126;DHT22;53956;52.442;13.284;2022-12-31T15:31:25;17.20;99.90
18126;DHT22;53956;52.442;13.284;2022-12-31T15:33:57;17.20;99.90
18126;DHT22;53956;52.442;13.284;2022-12-31T15:36:26;17.30;99.90
18126;DHT22;53956;52.442;13.284;2022-12-31T15:39:06;17.20;99.90
18126;DHT22;53956;52.442;13.284;2022-12-31T15:41:38;17.20;99.90
18126;DHT22;53956;52.442;13.284;2022-12-31T15:44:13;17.30;99.90
18126;DHT22;53956;52.442;13.284;2022-12-31T15:46:43;17.20;99.90
18126;DHT22;53956;52.442;13.284;2022-12-31T15:49:16;17.20;99.90
18126;DHT22;53956;52.442;13.284;2022-12-31T15:51:47;17.30;99.90
18126;DHT22;53956;52.442;13.284;2022-12-31T15:54:23;17.30;99.90
18126;DHT22;53956;52.442;13.284;2022-12-31T15:56:51;17.20;99.90
18126;DHT22;53956;52.442;13.284;2022-12-31T15:59:20;17.30;99.90
18126;DHT22;53956;52.442;13.284;2022-12-31T16:01:47;17.40;99.90
18126;DHT22;53956;52.442;13.284;2022-12-31T16:04:17;17.20;99.90
18126;DHT22;53956;52.442;13.284;2022-12-31T16:06:45;17.10;99.90
18126;DHT22;53956;52.442;13.284;2022-12-31T16:09:22;17.20;99.90